createdAt,value
2018-10-12T04:00:10.560Z,32.97
2018-10-12T04:02:38.750Z,32.97
2018-10-12T04:05:06.812Z,33.65
2018-10-12T04:07:34.952Z,35.63
2018-10-12T04:10:03.067Z,34.17
2018-10-12T04:12:31.232Z,35.63
2018-10-12T04:14:59.452Z,35.35
2018-10-12T04:17:27.597Z,35.97
2018-10-12T04:19:57.491Z,36.43
2018-10-12T04:22:26.304Z,36.17
2018-10-12T04:24:54.570Z,35.60
2018-10-12T04:27:22.707Z,34.23
2018-10-12T04:29:50.819Z,34.57
2018-10-12T04:32:18.943Z,33.43
2018-10-12T04:34:47.647Z,31.80
2018-10-12T04:37:17.060Z,31.15
2018-10-12T04:39:53.373Z,32.10
2018-10-12T04:42:21.499Z,33.20
2018-10-12T04:44:49.675Z,32.10
2018-10-12T04:47:18.069Z,32.27
2018-10-12T04:49:46.387Z,31.47
2018-10-12T04:52:15.107Z,31.67
2018-10-12T04:54:43.307Z,31.13
2018-10-12T04:57:16.360Z,29.40
2018-10-12T04:59:45.027Z,28.93
2018-10-12T05:02:13.123Z,28.70
2018-10-12T05:04:41.568Z,29.37
2018-10-12T05:07:09.699Z,29.60
2018-10-12T05:09:37.867Z,30.40
2018-10-12T05:12:07.468Z,30.80
2018-10-12T05:14:37.735Z,30.32
2018-10-12T05:17:06.715Z,30.43
2018-10-12T05:19:35.159Z,29.80
2018-10-12T05:22:03.308Z,29.77
2018-10-12T05:24:31.328Z,29.57
2018-10-12T05:26:59.507Z,29.82
2018-10-12T05:29:28.156Z,29.93
2018-10-12T05:31:56.816Z,30.23
2018-10-12T05:34:25.214Z,30.53
2018-10-12T05:36:53.319Z,30.85
2018-10-12T05:39:21.415Z,29.93
2018-10-12T05:41:49.535Z,30.97
2018-10-12T05:44:17.708Z,31.70
2018-10-12T05:46:46.795Z,31.60
2018-10-12T05:49:26.403Z,31.30
2018-10-12T05:51:54.764Z,31.70
2018-10-12T05:54:22.990Z,35.57
2018-10-12T05:56:53.077Z,29.87
2018-10-12T05:59:21.241Z,28.57
2018-10-12T06:01:49.436Z,28.90
2018-10-12T06:04:17.580Z,29.10
2018-10-12T06:06:46.068Z,27.93
2018-10-12T06:09:14.172Z,27.47
2018-10-12T06:11:42.346Z,26.93
2018-10-12T06:14:10.499Z,28.47
2018-10-12T06:16:38.672Z,29.63
2018-10-12T06:19:06.796Z,28.63
2018-10-12T06:21:34.958Z,27.35
2018-10-12T06:24:02.984Z,25.03
2018-10-12T06:26:31.075Z,25.45
2018-10-12T06:28:59.668Z,25.57
2018-10-12T06:31:29.198Z,27.07
2018-10-12T06:33:59.514Z,25.83
2018-10-12T06:36:27.824Z,26.70
2018-10-12T06:38:56.012Z,24.07
2018-10-12T06:41:24.287Z,24.83
2018-10-12T06:43:52.431Z,24.65
2018-10-12T06:46:20.603Z,24.40
2018-10-12T06:48:48.744Z,24.37
2018-10-12T06:51:16.895Z,26.43
2018-10-12T06:53:46.848Z,25.23
2018-10-12T06:56:15.262Z,25.90
2018-10-12T06:58:43.395Z,26.30
2018-10-12T07:01:11.512Z,27.50
2018-10-12T07:03:40.195Z,26.40
2018-10-12T07:06:07.751Z,26.80
2018-10-12T07:08:35.940Z,25.80
2018-10-12T07:11:04.425Z,26.23
2018-10-12T07:13:32.487Z,25.17
2018-10-12T07:16:02.194Z,24.30
2018-10-12T07:18:30.283Z,24.50
2018-10-12T07:20:58.424Z,23.47
2018-10-12T07:23:26.511Z,25.00
2018-10-12T07:25:55.743Z,26.47
2018-10-12T07:28:23.795Z,23.92
2018-10-12T07:30:51.875Z,24.80
2018-10-12T07:33:19.975Z,24.53
2018-10-12T07:35:48.062Z,24.10
2018-10-12T07:38:17.131Z,22.27
2018-10-12T07:40:45.257Z,22.13
2018-10-12T07:43:13.389Z,22.63
2018-10-12T07:45:41.481Z,23.27
2018-10-12T07:48:09.721Z,23.67
2018-10-12T07:50:37.763Z,21.93
2018-10-12T07:53:06.174Z,22.43
2018-10-12T07:55:34.263Z,22.05
2018-10-12T07:58:02.378Z,21.57
2018-10-12T08:00:30.707Z,22.93
2018-10-12T08:02:58.744Z,23.93
2018-10-12T08:05:26.819Z,24.00
2018-10-12T08:07:55.084Z,22.70
2018-10-12T08:10:23.158Z,23.43
2018-10-12T08:12:51.252Z,24.25
2018-10-12T08:15:19.343Z,23.97
2018-10-12T08:17:47.475Z,23.80
2018-10-12T08:20:16.545Z,23.73
2018-10-12T08:22:44.671Z,22.43
2018-10-12T08:25:12.751Z,22.63
2018-10-12T08:27:40.879Z,23.33
2018-10-12T08:30:16.529Z,23.53
2018-10-12T08:32:44.599Z,22.33
2018-10-12T08:35:12.684Z,23.90
2018-10-12T08:37:40.865Z,22.10
2018-10-12T08:40:08.931Z,22.67
2018-10-12T08:42:37.019Z,21.70
2018-10-12T08:45:07.308Z,22.25
2018-10-12T08:47:35.625Z,24.53
2018-10-12T08:50:04.182Z,22.40
2018-10-12T08:52:32.250Z,23.77
2018-10-12T08:55:00.793Z,22.17
2018-10-12T08:57:28.879Z,22.13
2018-10-12T08:59:57.100Z,20.67
2018-10-12T09:02:25.676Z,18.73
2018-10-12T09:04:53.804Z,16.27
2018-10-12T09:07:23.156Z,18.93
2018-10-12T09:09:51.436Z,17.77
2018-10-12T09:12:19.519Z,17.47
2018-10-12T09:14:47.623Z,19.73
2018-10-12T09:17:15.915Z,20.63
2018-10-12T09:19:44.047Z,18.40
2018-10-12T09:22:14.360Z,18.03
2018-10-12T09:24:42.636Z,17.63
2018-10-12T09:29:40.316Z,16.65
2018-10-12T09:32:08.403Z,15.33
2018-10-12T09:34:36.643Z,14.13
2018-10-12T09:37:04.775Z,11.73
2018-10-12T09:39:32.844Z,11.40
2018-10-12T09:42:00.964Z,11.05
2018-10-12T09:44:31.303Z,11.23
2018-10-12T09:46:59.431Z,10.05
2018-10-12T09:49:27.662Z,10.67
2018-10-12T09:52:07.803Z,12.97
2018-10-12T09:54:36.281Z,13.67
2018-10-12T09:57:09.739Z,12.80
2018-10-12T09:59:37.855Z,11.53
2018-10-12T10:02:11.532Z,11.40
2018-10-12T10:04:44.563Z,11.40
2018-10-12T10:07:16.923Z,9.40
2018-10-12T10:09:45.067Z,10.13
2018-10-12T10:12:13.170Z,9.50
2018-10-12T10:14:41.332Z,9.90
2018-10-12T10:17:10.531Z,11.63
2018-10-12T10:19:38.623Z,11.27
2018-10-12T10:22:06.783Z,12.07
2018-10-12T10:24:35.155Z,12.43
2018-10-12T10:27:03.337Z,11.93
2018-10-12T10:29:32.135Z,10.55
2018-10-12T10:32:00.228Z,10.90
2018-10-12T10:34:30.866Z,10.63
2018-10-12T10:36:58.960Z,11.80
2018-10-12T10:39:41.352Z,10.40
2018-10-12T10:42:09.432Z,10.40
2018-10-12T10:44:37.520Z,10.65
2018-10-12T10:47:06.256Z,10.87
2018-10-12T10:49:37.339Z,11.53
2018-10-12T10:52:06.476Z,11.37
2018-10-12T10:54:34.572Z,11.30
2018-10-12T10:57:21.580Z,12.57
2018-10-12T10:59:50.259Z,12.46
2018-10-12T11:02:18.724Z,12.27
2018-10-12T11:04:48.159Z,11.87
2018-10-12T11:07:24.148Z,11.17
2018-10-12T11:09:52.340Z,11.83
2018-10-12T11:12:26.803Z,13.73
2018-10-12T11:14:56.303Z,12.67
2018-10-12T11:17:24.520Z,12.70
2018-10-12T11:19:52.865Z,14.40
2018-10-12T11:22:21.283Z,13.67
2018-10-12T11:24:49.524Z,13.07
2018-10-12T11:27:18.133Z,13.33
2018-10-12T11:29:46.376Z,14.63
2018-10-12T11:32:14.888Z,13.50
2018-10-12T11:34:43.008Z,12.83
2018-10-12T11:37:12.501Z,12.03
2018-10-12T11:39:41.780Z,12.50
2018-10-12T11:42:09.915Z,13.33
2018-10-12T11:44:40.133Z,13.27
2018-10-12T11:47:09.347Z,11.70
2018-10-12T11:49:38.535Z,11.23
2018-10-12T11:52:06.869Z,11.07
2018-10-12T11:54:34.961Z,9.70
2018-10-12T11:57:03.058Z,10.03
2018-10-12T11:59:31.188Z,8.90
2018-10-12T12:01:59.961Z,8.27
2018-10-12T12:04:29.294Z,8.73
2018-10-12T12:06:57.382Z,8.63
2018-10-12T12:09:26.999Z,8.77
2018-10-12T12:11:55.153Z,8.90
2018-10-12T12:14:23.488Z,9.73
2018-10-12T12:16:51.596Z,8.10
2018-10-12T12:19:20.126Z,9.47
2018-10-12T12:21:48.143Z,8.90
2018-10-12T12:24:16.348Z,8.23
2018-10-12T12:26:45.139Z,8.57
2018-10-12T12:29:13.201Z,8.10
2018-10-12T12:31:42.340Z,8.30
2018-10-12T12:34:10.572Z,7.83
2018-10-12T12:36:38.650Z,8.10
2018-10-12T12:39:08.206Z,7.10
2018-10-12T12:41:36.999Z,7.47
2018-10-12T12:44:05.424Z,7.47
2018-10-12T12:46:33.539Z,8.30
2018-10-12T12:49:03.008Z,8.03
2018-10-12T12:51:33.133Z,7.87
2018-10-12T12:56:49.139Z,7.00
2018-10-12T12:59:17.236Z,7.83
2018-10-12T13:01:45.454Z,7.17
2018-10-12T13:04:14.533Z,7.50
2018-10-12T13:06:42.667Z,7.00
2018-10-12T13:09:12.121Z,6.97
2018-10-12T13:11:40.440Z,7.70
2018-10-12T13:14:08.688Z,7.00
2018-10-12T13:16:36.799Z,7.20
2018-10-12T13:19:04.905Z,6.90
2018-10-12T13:21:33.051Z,6.75
2018-10-12T13:24:01.224Z,6.87
2018-10-12T13:26:29.327Z,6.55
2018-10-12T13:28:57.452Z,6.50
2018-10-12T13:31:27.133Z,6.30
2018-10-12T13:33:56.068Z,6.60
2018-10-12T13:36:24.651Z,6.20
2018-10-12T13:38:52.772Z,5.77
2018-10-12T13:41:34.512Z,6.23
2018-10-12T13:44:02.680Z,6.03
2018-10-12T13:46:30.882Z,6.70
2018-10-12T13:48:58.991Z,5.93
2018-10-12T13:51:27.116Z,5.83
2018-10-12T13:53:55.287Z,6.33
2018-10-12T13:56:23.604Z,5.07
2018-10-12T13:58:51.775Z,5.00
2018-10-12T14:01:19.931Z,5.83
2018-10-12T14:03:49.142Z,6.62
2018-10-12T14:06:17.295Z,4.87
2018-10-12T14:08:45.736Z,5.13
2018-10-12T14:11:13.830Z,4.20
2018-10-12T14:13:42.508Z,3.97
2018-10-12T14:16:16.683Z,4.47
2018-10-12T14:18:45.054Z,4.13
2018-10-12T14:21:15.388Z,4.90
2018-10-12T14:23:45.484Z,4.17
2018-10-12T14:26:13.732Z,5.42
2018-10-12T14:28:41.827Z,3.90
2018-10-12T14:31:10.695Z,3.95
2018-10-12T14:33:38.979Z,4.07
2018-10-12T14:36:08.424Z,3.60
2018-10-12T14:38:36.633Z,4.30
